sensor_id;sensor_type;location;lat;lon;timestamp;P1;durP1;ratioP1;P2;durP2;ratioP2
57335;SDS011;43171;50.994;18.204;2022-09-09T00:00:11;9.60;;;6.70;;
57335;SDS011;43171;50.994;18.204;2022-09-09T00:02:38;7.70;;;6.50;;
57335;SDS011;43171;50.994;18.204;2022-09-09T00:05:15;8.80;;;6.80;;
57335;SDS011;43171;50.994;18.204;2022-09-09T00:07:50;8.20;;;6.40;;
57335;SDS011;43171;50.994;18.204;2022-09-09T00:21:08;9.40;;;6.60;;
57335;SDS011;43171;50.994;18.204;2022-09-09T00:23:38;14.90;;;6.80;;
57335;SDS011;43171;50.994;18.204;2022-09-09T00:26:09;9.70;;;7.20;;
57335;SDS011;43171;50.994;18.204;2022-09-09T00:31:35;10.20;;;6.50;;
57335;SDS011;43171;50.994;18.204;2022-09-09T00:34:05;12.30;;;7.10;;
57335;SDS011;43171;50.994;18.204;2022-09-09T00:36:34;9.60;;;6.80;;
57335;SDS011;43171;50.994;18.204;2022-09-09T00:39:02;10.20;;;7.20;;
57335;SDS011;43171;50.994;18.204;2022-09-09T00:41:36;9.80;;;6.90;;
57335;SDS011;43171;50.994;18.204;2022-09-09T00:44:35;10.00;;;6.60;;
57335;SDS011;43171;50.994;18.204;2022-09-09T00:52:59;8.70;;;6.80;;
57335;SDS011;43171;50.994;18.204;2022-09-09T00:55:39;8.30;;;6.60;;
57335;SDS011;43171;50.994;18.204;2022-09-09T00:58:13;9.00;;;6.80;;
57335;SDS011;43171;50.994;18.204;2022-09-09T01:00:41;10.20;;;7.10;;
57335;SDS011;43171;50.994;18.204;2022-09-09T01:05:55;8.70;;;6.60;;
57335;SDS011;43171;50.994;18.204;2022-09-09T01:11:15;8.60;;;6.00;;
57335;SDS011;43171;50.994;18.204;2022-09-09T01:14:02;11.20;;;6.20;;
57335;SDS011;43171;50.994;18.204;2022-09-09T01:16:39;9.10;;;6.50;;
57335;SDS011;43171;50.994;18.204;2022-09-09T01:19:07;10.00;;;6.60;;
57335;SDS011;43171;50.994;18.204;2022-09-09T01:21:41;8.30;;;6.60;;
57335;SDS011;43171;50.994;18.204;2022-09-09T01:24:37;8.20;;;6.50;;
57335;SDS011;43171;50.994;18.204;2022-09-09T01:27:31;8.80;;;6.80;;
57335;SDS011;43171;50.994;18.204;2022-09-09T01:29:58;10.90;;;7.40;;
57335;SDS011;43171;50.994;18.204;2022-09-09T01:37:54;11.10;;;8.50;;
57335;SDS011;43171;50.994;18.204;2022-09-09T01:40:19;13.40;;;9.10;;
57335;SDS011;43171;50.994;18.204;2022-09-09T01:42:45;13.10;;;9.60;;
57335;SDS011;43171;50.994;18.204;2022-09-09T01:45:10;13.30;;;9.40;;
57335;SDS011;43171;50.994;18.204;2022-09-09T01:47:36;13.50;;;9.80;;
57335;SDS011;43171;50.994;18.204;2022-09-09T01:50:02;13.00;;;10.50;;
57335;SDS011;43171;50.994;18.204;2022-09-09T01:52:29;14.20;;;10.10;;
57335;SDS011;43171;50.994;18.204;2022-09-09T01:54:56;14.40;;;11.00;;
57335;SDS011;43171;50.994;18.204;2022-09-09T01:57:29;16.90;;;11.10;;
57335;SDS011;43171;50.994;18.204;2022-09-09T02:00:03;13.90;;;10.30;;
57335;SDS011;43171;50.994;18.204;2022-09-09T02:08:08;18.40;;;11.20;;
57335;SDS011;43171;50.994;18.204;2022-09-09T02:13:12;15.20;;;10.50;;
57335;SDS011;43171;50.994;18.204;2022-09-09T02:15:42;15.40;;;11.10;;
57335;SDS011;43171;50.994;18.204;2022-09-09T02:18:10;15.10;;;11.40;;
57335;SDS011;43171;50.994;18.204;2022-09-09T02:20:37;15.90;;;10.90;;
57335;SDS011;43171;50.994;18.204;2022-09-09T02:23:05;16.20;;;10.60;;
57335;SDS011;43171;50.994;18.204;2022-09-09T02:25:32;14.50;;;10.80;;
57335;SDS011;43171;50.994;18.204;2022-09-09T02:27:59;13.50;;;10.40;;
57335;SDS011;43171;50.994;18.204;2022-09-09T02:30:24;14.60;;;10.70;;
57335;SDS011;43171;50.994;18.204;2022-09-09T02:32:50;13.30;;;10.10;;
57335;SDS011;43171;50.994;18.204;2022-09-09T02:35:19;14.00;;;10.70;;
57335;SDS011;43171;50.994;18.204;2022-09-09T02:37:46;14.30;;;10.90;;
57335;SDS011;43171;50.994;18.204;2022-09-09T02:40:12;13.30;;;10.30;;
57335;SDS011;43171;50.994;18.204;2022-09-09T02:42:41;13.20;;;10.40;;
57335;SDS011;43171;50.994;18.204;2022-09-09T02:45:13;14.20;;;10.90;;
57335;SDS011;43171;50.994;18.204;2022-09-09T02:47:45;13.00;;;10.60;;
57335;SDS011;43171;50.994;18.204;2022-09-09T02:50:32;14.60;;;10.70;;
57335;SDS011;43171;50.994;18.204;2022-09-09T02:53:02;13.70;;;10.60;;
57335;SDS011;43171;50.994;18.204;2022-09-09T02:55:39;14.40;;;11.00;;
57335;SDS011;43171;50.994;18.204;2022-09-09T02:58:13;14.10;;;10.70;;
57335;SDS011;43171;50.994;18.204;2022-09-09T03:00:48;14.90;;;11.10;;
57335;SDS011;43171;50.994;18.204;2022-09-09T03:03:16;13.60;;;10.90;;
57335;SDS011;43171;50.994;18.204;2022-09-09T03:05:42;13.30;;;11.10;;
57335;SDS011;43171;50.994;18.204;2022-09-09T03:08:09;13.00;;;10.80;;
57335;SDS011;43171;50.994;18.204;2022-09-09T03:10:35;13.40;;;10.60;;
57335;SDS011;43171;50.994;18.204;2022-09-09T03:13:02;12.00;;;10.10;;
57335;SDS011;43171;50.994;18.204;2022-09-09T03:15:31;13.30;;;10.10;;
57335;SDS011;43171;50.994;18.204;2022-09-09T03:17:59;13.40;;;10.30;;
57335;SDS011;43171;50.994;18.204;2022-09-09T03:20:26;12.30;;;10.10;;
57335;SDS011;43171;50.994;18.204;2022-09-09T03:22:52;11.80;;;9.70;;
57335;SDS011;43171;50.994;18.204;2022-09-09T03:25:19;11.30;;;9.50;;
57335;SDS011;43171;50.994;18.204;2022-09-09T03:27:46;11.80;;;9.70;;
57335;SDS011;43171;50.994;18.204;2022-09-09T03:30:11;12.20;;;10.10;;
57335;SDS011;43171;50.994;18.204;2022-09-09T03:32:37;11.90;;;10.10;;
57335;SDS011;43171;50.994;18.204;2022-09-09T03:35:03;12.20;;;10.10;;
57335;SDS011;43171;50.994;18.204;2022-09-09T03:37:29;12.30;;;10.10;;
57335;SDS011;43171;50.994;18.204;2022-09-09T03:39:54;13.90;;;10.80;;
57335;SDS011;43171;50.994;18.204;2022-09-09T03:42:20;12.80;;;10.80;;
57335;SDS011;43171;50.994;18.204;2022-09-09T03:44:46;13.20;;;10.70;;
57335;SDS011;43171;50.994;18.204;2022-09-09T03:47:18;11.70;;;10.30;;
57335;SDS011;43171;50.994;18.204;2022-09-09T03:49:45;12.30;;;10.30;;
57335;SDS011;43171;50.994;18.204;2022-09-09T03:52:11;11.90;;;9.50;;
57335;SDS011;43171;50.994;18.204;2022-09-09T03:54:36;11.40;;;9.90;;
57335;SDS011;43171;50.994;18.204;2022-09-09T03:57:03;12.50;;;9.80;;
57335;SDS011;43171;50.994;18.204;2022-09-09T03:59:30;10.90;;;9.40;;
57335;SDS011;43171;50.994;18.204;2022-09-09T04:01:55;10.70;;;9.40;;
57335;SDS011;43171;50.994;18.204;2022-09-09T04:04:22;10.60;;;9.50;;
57335;SDS011;43171;50.994;18.204;2022-09-09T04:06:48;11.70;;;9.30;;
57335;SDS011;43171;50.994;18.204;2022-09-09T04:09:14;10.00;;;9.00;;
57335;SDS011;43171;50.994;18.204;2022-09-09T04:11:39;10.20;;;9.10;;
57335;SDS011;43171;50.994;18.204;2022-09-09T04:14:05;11.90;;;9.90;;
57335;SDS011;43171;50.994;18.204;2022-09-09T04:16:32;13.90;;;9.70;;
57335;SDS011;43171;50.994;18.204;2022-09-09T04:18:58;10.20;;;9.20;;
57335;SDS011;43171;50.994;18.204;2022-09-09T04:21:25;9.70;;;8.80;;
57335;SDS011;43171;50.994;18.204;2022-09-09T04:23:51;10.20;;;8.60;;
57335;SDS011;43171;50.994;18.204;2022-09-09T04:26:17;10.20;;;8.80;;
57335;SDS011;43171;50.994;18.204;2022-09-09T04:28:43;9.80;;;8.80;;
57335;SDS011;43171;50.994;18.204;2022-09-09T04:31:10;9.70;;;8.70;;
57335;SDS011;43171;50.994;18.204;2022-09-09T04:33:39;9.80;;;8.70;;
57335;SDS011;43171;50.994;18.204;2022-09-09T04:36:05;9.50;;;8.60;;
57335;SDS011;43171;50.994;18.204;2022-09-09T04:38:31;10.40;;;9.20;;
57335;SDS011;43171;50.994;18.204;2022-09-09T04:40:56;9.90;;;9.00;;
57335;SDS011;43171;50.994;18.204;2022-09-09T04:43:22;10.10;;;9.10;;
57335;SDS011;43171;50.994;18.204;2022-09-09T04:45:50;9.80;;;8.70;;
57335;SDS011;43171;50.994;18.204;2022-09-09T04:48:17;9.40;;;8.50;;
57335;SDS011;43171;50.994;18.204;2022-09-09T04:50:42;10.40;;;9.00;;
57335;SDS011;43171;50.994;18.204;2022-09-09T04:53:08;9.60;;;8.70;;
57335;SDS011;43171;50.994;18.204;2022-09-09T04:55:34;9.90;;;8.80;;
57335;SDS011;43171;50.994;18.204;2022-09-09T04:58:04;10.10;;;9.10;;
57335;SDS011;43171;50.994;18.204;2022-09-09T05:00:31;10.50;;;9.30;;
57335;SDS011;43171;50.994;18.204;2022-09-09T05:02:57;10.20;;;9.20;;
57335;SDS011;43171;50.994;18.204;2022-09-09T05:05:22;9.90;;;8.50;;
57335;SDS011;43171;50.994;18.204;2022-09-09T05:07:48;9.70;;;8.60;;
57335;SDS011;43171;50.994;18.204;2022-09-09T05:10:14;9.70;;;8.40;;
57335;SDS011;43171;50.994;18.204;2022-09-09T05:12:43;10.90;;;8.80;;
57335;SDS011;43171;50.994;18.204;2022-09-09T05:15:18;9.20;;;8.30;;
57335;SDS011;43171;50.994;18.204;2022-09-09T05:17:43;9.70;;;8.60;;
57335;SDS011;43171;50.994;18.204;2022-09-09T05:20:09;9.70;;;8.70;;
57335;SDS011;43171;50.994;18.204;2022-09-09T05:22:34;9.70;;;8.70;;
57335;SDS011;43171;50.994;18.204;2022-09-09T05:25:00;9.30;;;8.40;;
57335;SDS011;43171;50.994;18.204;2022-09-09T05:27:26;8.60;;;7.70;;
57335;SDS011;43171;50.994;18.204;2022-09-09T05:29:52;9.20;;;8.30;;
57335;SDS011;43171;50.994;18.204;2022-09-09T05:32:18;9.10;;;8.30;;
57335;SDS011;43171;50.994;18.204;2022-09-09T05:34:43;9.40;;;8.10;;
57335;SDS011;43171;50.994;18.204;2022-09-09T05:37:09;8.90;;;7.90;;
57335;SDS011;43171;50.994;18.204;2022-09-09T05:39:34;8.40;;;7.60;;
57335;SDS011;43171;50.994;18.204;2022-09-09T05:42:03;9.10;;;8.20;;
57335;SDS011;43171;50.994;18.204;2022-09-09T05:44:29;9.00;;;8.00;;
57335;SDS011;43171;50.994;18.204;2022-09-09T05:46:55;9.20;;;8.30;;
57335;SDS011;43171;50.994;18.204;2022-09-09T05:49:21;8.90;;;8.10;;
57335;SDS011;43171;50.994;18.204;2022-09-09T05:51:46;8.60;;;7.80;;
57335;SDS011;43171;50.994;18.204;2022-09-09T05:54:13;8.90;;;7.70;;
57335;SDS011;43171;50.994;18.204;2022-09-09T05:56:41;8.20;;;7.50;;
57335;SDS011;43171;50.994;18.204;2022-09-09T05:59:07;8.20;;;7.50;;
57335;SDS011;43171;50.994;18.204;2022-09-09T06:01:33;8.50;;;7.60;;
57335;SDS011;43171;50.994;18.204;2022-09-09T06:04:00;7.70;;;7.00;;
57335;SDS011;43171;50.994;18.204;2022-09-09T06:06:27;7.70;;;7.00;;
57335;SDS011;43171;50.994;18.204;2022-09-09T06:08:57;9.10;;;7.20;;
57335;SDS011;43171;50.994;18.204;2022-09-09T06:11:24;7.90;;;7.10;;
57335;SDS011;43171;50.994;18.204;2022-09-09T06:13:51;7.90;;;7.10;;
57335;SDS011;43171;50.994;18.204;2022-09-09T06:16:20;8.00;;;6.90;;
57335;SDS011;43171;50.994;18.204;2022-09-09T06:18:49;7.30;;;6.60;;
57335;SDS011;43171;50.994;18.204;2022-09-09T06:21:19;7.60;;;6.90;;
57335;SDS011;43171;50.994;18.204;2022-09-09T06:23:59;7.40;;;6.70;;
57335;SDS011;43171;50.994;18.204;2022-09-09T06:26:26;7.60;;;6.90;;
57335;SDS011;43171;50.994;18.204;2022-09-09T06:28:57;7.70;;;6.90;;
57335;SDS011;43171;50.994;18.204;2022-09-09T06:31:24;7.30;;;6.60;;
57335;SDS011;43171;50.994;18.204;2022-09-09T06:33:53;7.30;;;6.60;;
57335;SDS011;43171;50.994;18.204;2022-09-09T06:36:41;6.80;;;6.20;;
57335;SDS011;43171;50.994;18.204;2022-09-09T06:39:07;7.50;;;6.80;;
57335;SDS011;43171;50.994;18.204;2022-09-09T06:41:33;6.80;;;6.10;;
57335;SDS011;43171;50.994;18.204;2022-09-09T06:44:00;7.00;;;6.00;;
57335;SDS011;43171;50.994;18.204;2022-09-09T06:46:30;6.70;;;6.10;;
57335;SDS011;43171;50.994;18.204;2022-09-09T06:48:58;7.70;;;6.50;;
57335;SDS011;43171;50.994;18.204;2022-09-09T06:51:29;6.90;;;6.20;;
57335;SDS011;43171;50.994;18.204;2022-09-09T06:53:57;6.90;;;6.20;;
57335;SDS011;43171;50.994;18.204;2022-09-09T06:56:34;6.10;;;5.50;;
57335;SDS011;43171;50.994;18.204;2022-09-09T06:59:02;6.80;;;5.70;;
57335;SDS011;43171;50.994;18.204;2022-09-09T07:01:30;6.50;;;5.50;;
57335;SDS011;43171;50.994;18.204;2022-09-09T07:03:58;6.10;;;5.60;;
57335;SDS011;43171;50.994;18.204;2022-09-09T07:06:25;6.20;;;5.70;;
57335;SDS011;43171;50.994;18.204;2022-09-09T07:08:56;6.90;;;6.20;;
57335;SDS011;43171;50.994;18.204;2022-09-09T07:11:24;6.30;;;5.20;;
57335;SDS011;43171;50.994;18.204;2022-09-09T07:13:52;7.60;;;6.00;;
57335;SDS011;43171;50.994;18.204;2022-09-09T07:16:18;5.90;;;5.40;;
57335;SDS011;43171;50.994;18.204;2022-09-09T07:18:45;6.10;;;5.50;;
57335;SDS011;43171;50.994;18.204;2022-09-09T07:21:13;6.70;;;5.40;;
57335;SDS011;43171;50.994;18.204;2022-09-09T07:23:39;6.10;;;5.50;;
57335;SDS011;43171;50.994;18.204;2022-09-09T07:26:09;5.90;;;5.30;;
57335;SDS011;43171;50.994;18.204;2022-09-09T07:28:36;6.00;;;5.40;;
57335;SDS011;43171;50.994;18.204;2022-09-09T07:31:03;6.40;;;5.80;;
57335;SDS011;43171;50.994;18.204;2022-09-09T07:33:30;6.20;;;5.40;;
57335;SDS011;43171;50.994;18.204;2022-09-09T07:36:05;5.70;;;5.30;;
57335;SDS011;43171;50.994;18.204;2022-09-09T07:38:40;5.20;;;4.70;;
57335;SDS011;43171;50.994;18.204;2022-09-09T07:41:09;6.70;;;5.60;;
57335;SDS011;43171;50.994;18.204;2022-09-09T07:43:39;5.70;;;5.20;;
57335;SDS011;43171;50.994;18.204;2022-09-09T07:46:09;5.80;;;5.30;;
57335;SDS011;43171;50.994;18.204;2022-09-09T07:48:36;5.70;;;4.50;;
57335;SDS011;43171;50.994;18.204;2022-09-09T07:51:09;5.10;;;4.50;;
57335;SDS011;43171;50.994;18.204;2022-09-09T07:53:40;4.70;;;4.30;;
57335;SDS011;43171;50.994;18.204;2022-09-09T07:56:09;5.10;;;4.70;;
57335;SDS011;43171;50.994;18.204;2022-09-09T07:58:37;5.20;;;4.70;;
57335;SDS011;43171;50.994;18.204;2022-09-09T08:01:07;4.50;;;4.00;;
57335;SDS011;43171;50.994;18.204;2022-09-09T08:03:42;5.00;;;4.40;;
57335;SDS011;43171;50.994;18.204;2022-09-09T08:06:09;5.20;;;4.10;;
57335;SDS011;43171;50.994;18.204;2022-09-09T08:08:36;5.50;;;4.30;;
57335;SDS011;43171;50.994;18.204;2022-09-09T08:11:08;4.50;;;4.10;;
57335;SDS011;43171;50.994;18.204;2022-09-09T08:13:36;5.30;;;4.10;;
57335;SDS011;43171;50.994;18.204;2022-09-09T08:16:03;6.50;;;5.40;;
57335;SDS011;43171;50.994;18.204;2022-09-09T08:18:31;7.10;;;6.40;;
57335;SDS011;43171;50.994;18.204;2022-09-09T08:20:56;3.80;;;3.40;;
57335;SDS011;43171;50.994;18.204;2022-09-09T08:23:22;4.00;;;3.70;;
57335;SDS011;43171;50.994;18.204;2022-09-09T08:25:48;3.10;;;2.50;;
57335;SDS011;43171;50.994;18.204;2022-09-09T08:28:15;2.60;;;2.20;;
57335;SDS011;43171;50.994;18.204;2022-09-09T08:30:41;2.20;;;1.90;;
57335;SDS011;43171;50.994;18.204;2022-09-09T08:33:06;2.80;;;1.50;;
57335;SDS011;43171;50.994;18.204;2022-09-09T08:35:33;3.00;;;1.60;;
57335;SDS011;43171;50.994;18.204;2022-09-09T08:37:59;2.50;;;1.70;;
57335;SDS011;43171;50.994;18.204;2022-09-09T08:40:26;1.60;;;1.40;;
57335;SDS011;43171;50.994;18.204;2022-09-09T08:42:54;1.90;;;1.70;;
57335;SDS011;43171;50.994;18.204;2022-09-09T08:45:24;2.60;;;1.70;;
57335;SDS011;43171;50.994;18.204;2022-09-09T08:48:08;2.50;;;1.70;;
57335;SDS011;43171;50.994;18.204;2022-09-09T08:50:47;2.90;;;2.20;;
57335;SDS011;43171;50.994;18.204;2022-09-09T08:53:16;3.30;;;2.10;;
57335;SDS011;43171;50.994;18.204;2022-09-09T08:58:30;2.10;;;1.90;;
57335;SDS011;43171;50.994;18.204;2022-09-09T09:11:21;1.80;;;1.60;;
57335;SDS011;43171;50.994;18.204;2022-09-09T09:13:50;2.20;;;1.80;;
57335;SDS011;43171;50.994;18.204;2022-09-09T09:18:56;4.00;;;2.00;;
57335;SDS011;43171;50.994;18.204;2022-09-09T09:24:10;4.10;;;2.00;;
57335;SDS011;43171;50.994;18.204;2022-09-09T09:26:42;2.20;;;1.90;;
57335;SDS011;43171;50.994;18.204;2022-09-09T09:29:15;2.10;;;1.90;;
57335;SDS011;43171;50.994;18.204;2022-09-09T09:31:43;2.50;;;1.80;;
57335;SDS011;43171;50.994;18.204;2022-09-09T09:34:11;3.00;;;2.10;;
57335;SDS011;43171;50.994;18.204;2022-09-09T09:36:39;2.40;;;1.70;;
57335;SDS011;43171;50.994;18.204;2022-09-09T09:39:07;2.60;;;1.80;;
57335;SDS011;43171;50.994;18.204;2022-09-09T09:45:45;2.30;;;1.50;;
57335;SDS011;43171;50.994;18.204;2022-09-09T09:48:11;2.40;;;1.60;;
57335;SDS011;43171;50.994;18.204;2022-09-09T09:53:34;2.00;;;1.50;;
57335;SDS011;43171;50.994;18.204;2022-09-09T09:56:06;2.10;;;1.50;;
57335;SDS011;43171;50.994;18.204;2022-09-09T09:58:37;1.90;;;1.70;;
57335;SDS011;43171;50.994;18.204;2022-09-09T10:01:23;1.70;;;1.60;;
57335;SDS011;43171;50.994;18.204;2022-09-09T10:04:02;1.50;;;1.40;;
57335;SDS011;43171;50.994;18.204;2022-09-09T10:06:41;4.80;;;3.40;;
57335;SDS011;43171;50.994;18.204;2022-09-09T10:09:35;1.30;;;1.20;;
57335;SDS011;43171;50.994;18.204;2022-09-09T10:14:56;1.80;;;1.30;;
57335;SDS011;43171;50.994;18.204;2022-09-09T10:22:46;1.80;;;1.30;;
57335;SDS011;43171;50.994;18.204;2022-09-09T10:36:23;2.70;;;1.20;;
57335;SDS011;43171;50.994;18.204;2022-09-09T10:39:01;2.90;;;1.50;;
57335;SDS011;43171;50.994;18.204;2022-09-09T10:47:36;2.70;;;1.80;;
57335;SDS011;43171;50.994;18.204;2022-09-09T10:55:35;1.80;;;1.50;;
57335;SDS011;43171;50.994;18.204;2022-09-09T10:58:04;1.90;;;1.50;;
57335;SDS011;43171;50.994;18.204;2022-09-09T11:00:38;2.30;;;1.80;;
57335;SDS011;43171;50.994;18.204;2022-09-09T11:03:19;2.80;;;1.60;;
57335;SDS011;43171;50.994;18.204;2022-09-09T11:05:58;1.80;;;1.30;;
57335;SDS011;43171;50.994;18.204;2022-09-09T11:08:30;2.10;;;1.10;;
57335;SDS011;43171;50.994;18.204;2022-09-09T11:11:03;2.10;;;1.10;;
57335;SDS011;43171;50.994;18.204;2022-09-09T11:13:54;3.00;;;1.00;;
57335;SDS011;43171;50.994;18.204;2022-09-09T11:16:30;2.10;;;1.20;;
57335;SDS011;43171;50.994;18.204;2022-09-09T11:19:19;2.60;;;1.30;;
57335;SDS011;43171;50.994;18.204;2022-09-09T11:22:00;2.60;;;1.40;;
57335;SDS011;43171;50.994;18.204;2022-09-09T11:24:44;3.40;;;1.30;;
57335;SDS011;43171;50.994;18.204;2022-09-09T11:27:15;2.60;;;1.40;;
57335;SDS011;43171;50.994;18.204;2022-09-09T11:38:35;1.60;;;1.40;;
57335;SDS011;43171;50.994;18.204;2022-09-09T11:41:09;2.60;;;1.30;;
57335;SDS011;43171;50.994;18.204;2022-09-09T11:43:53;2.70;;;1.30;;
57335;SDS011;43171;50.994;18.204;2022-09-09T11:46:39;2.80;;;1.20;;
57335;SDS011;43171;50.994;18.204;2022-09-09T11:49:05;1.90;;;1.30;;
57335;SDS011;43171;50.994;18.204;2022-09-09T11:51:32;1.60;;;1.40;;
57335;SDS011;43171;50.994;18.204;2022-09-09T11:54:02;1.30;;;1.10;;
57335;SDS011;43171;50.994;18.204;2022-09-09T11:56:48;1.70;;;1.20;;
57335;SDS011;43171;50.994;18.204;2022-09-09T11:59:21;2.50;;;1.20;;
57335;SDS011;43171;50.994;18.204;2022-09-09T12:01:54;1.90;;;1.20;;
57335;SDS011;43171;50.994;18.204;2022-09-09T12:04:30;2.60;;;1.10;;
57335;SDS011;43171;50.994;18.204;2022-09-09T12:06:59;2.40;;;1.20;;
57335;SDS011;43171;50.994;18.204;2022-09-09T12:09:39;1.70;;;1.10;;
57335;SDS011;43171;50.994;18.204;2022-09-09T12:12:22;1.70;;;1.00;;
57335;SDS011;43171;50.994;18.204;2022-09-09T12:14:57;2.90;;;1.50;;
57335;SDS011;43171;50.994;18.204;2022-09-09T12:17:30;1.50;;;1.00;;
57335;SDS011;43171;50.994;18.204;2022-09-09T12:22:36;1.90;;;1.00;;
57335;SDS011;43171;50.994;18.204;2022-09-09T12:25:41;1.40;;;1.00;;
57335;SDS011;43171;50.994;18.204;2022-09-09T12:28:18;1.20;;;1.00;;
57335;SDS011;43171;50.994;18.204;2022-09-09T12:33:16;1.00;;;0.90;;
57335;SDS011;43171;50.994;18.204;2022-09-09T12:35:43;2.50;;;1.10;;
57335;SDS011;43171;50.994;18.204;2022-09-09T12:38:15;1.30;;;1.10;;
57335;SDS011;43171;50.994;18.204;2022-09-09T12:40:56;2.10;;;1.10;;
57335;SDS011;43171;50.994;18.204;2022-09-09T12:43:23;1.30;;;1.10;;
57335;SDS011;43171;50.994;18.204;2022-09-09T12:45:51;1.90;;;1.10;;
57335;SDS011;43171;50.994;18.204;2022-09-09T12:48:41;1.60;;;0.80;;
57335;SDS011;43171;50.994;18.204;2022-09-09T12:51:44;1.20;;;0.90;;
57335;SDS011;43171;50.994;18.204;2022-09-09T12:54:03;1.20;;;0.90;;
57335;SDS011;43171;50.994;18.204;2022-09-09T12:56:30;1.50;;;1.10;;
57335;SDS011;43171;50.994;18.204;2022-09-09T12:58:57;1.80;;;0.90;;
57335;SDS011;43171;50.994;18.204;2022-09-09T13:03:54;1.50;;;0.80;;
57335;SDS011;43171;50.994;18.204;2022-09-09T13:06:21;2.00;;;0.90;;
57335;SDS011;43171;50.994;18.204;2022-09-09T13:08:49;1.30;;;0.90;;
57335;SDS011;43171;50.994;18.204;2022-09-09T13:11:35;3.10;;;1.00;;
57335;SDS011;43171;50.994;18.204;2022-09-09T13:14:03;2.50;;;0.90;;
57335;SDS011;43171;50.994;18.204;2022-09-09T13:16:30;1.60;;;1.20;;
57335;SDS011;43171;50.994;18.204;2022-09-09T13:19:13;1.40;;;1.00;;
57335;SDS011;43171;50.994;18.204;2022-09-09T13:21:40;2.70;;;1.00;;
57335;SDS011;43171;50.994;18.204;2022-09-09T13:26:54;1.30;;;1.10;;
57335;SDS011;43171;50.994;18.204;2022-09-09T13:29:21;1.70;;;1.10;;
57335;SDS011;43171;50.994;18.204;2022-09-09T13:31:47;1.30;;;0.90;;
57335;SDS011;43171;50.994;18.204;2022-09-09T13:36:58;1.20;;;0.90;;
57335;SDS011;43171;50.994;18.204;2022-09-09T13:39:27;1.50;;;1.00;;
57335;SDS011;43171;50.994;18.204;2022-09-09T13:41:53;1.90;;;0.90;;
57335;SDS011;43171;50.994;18.204;2022-09-09T13:44:24;1.80;;;0.80;;
57335;SDS011;43171;50.994;18.204;2022-09-09T13:46:59;2.00;;;1.00;;
57335;SDS011;43171;50.994;18.204;2022-09-09T13:49:32;1.30;;;0.70;;
57335;SDS011;43171;50.994;18.204;2022-09-09T13:52:05;1.40;;;0.70;;
57335;SDS011;43171;50.994;18.204;2022-09-09T13:54:35;1.70;;;0.80;;
57335;SDS011;43171;50.994;18.204;2022-09-09T13:57:00;2.30;;;0.80;;
57335;SDS011;43171;50.994;18.204;2022-09-09T13:59:27;1.70;;;0.80;;
57335;SDS011;43171;50.994;18.204;2022-09-09T14:01:52;1.40;;;0.80;;
57335;SDS011;43171;50.994;18.204;2022-09-09T14:04:18;1.80;;;0.60;;
57335;SDS011;43171;50.994;18.204;2022-09-09T14:06:46;1.20;;;0.90;;
57335;SDS011;43171;50.994;18.204;2022-09-09T14:09:14;2.40;;;0.90;;
57335;SDS011;43171;50.994;18.204;2022-09-09T14:11:41;2.10;;;0.90;;
57335;SDS011;43171;50.994;18.204;2022-09-09T14:14:06;1.30;;;0.90;;
57335;SDS011;43171;50.994;18.204;2022-09-09T14:16:33;2.10;;;1.00;;
57335;SDS011;43171;50.994;18.204;2022-09-09T14:18:58;2.60;;;0.90;;
57335;SDS011;43171;50.994;18.204;2022-09-09T14:21:24;0.80;;;0.70;;
57335;SDS011;43171;50.994;18.204;2022-09-09T14:23:51;1.40;;;0.90;;
57335;SDS011;43171;50.994;18.204;2022-09-09T14:26:18;2.50;;;0.90;;
57335;SDS011;43171;50.994;18.204;2022-09-09T14:28:46;1.70;;;0.80;;
57335;SDS011;43171;50.994;18.204;2022-09-09T14:31:12;1.50;;;0.70;;
57335;SDS011;43171;50.994;18.204;2022-09-09T14:33:39;1.30;;;0.70;;
57335;SDS011;43171;50.994;18.204;2022-09-09T14:36:05;2.90;;;1.00;;
57335;SDS011;43171;50.994;18.204;2022-09-09T14:38:34;1.70;;;0.80;;
57335;SDS011;43171;50.994;18.204;2022-09-09T14:41:11;1.30;;;0.80;;
57335;SDS011;43171;50.994;18.204;2022-09-09T14:43:38;1.70;;;0.90;;
57335;SDS011;43171;50.994;18.204;2022-09-09T14:46:05;1.40;;;0.90;;
57335;SDS011;43171;50.994;18.204;2022-09-09T14:48:32;1.30;;;0.80;;
57335;SDS011;43171;50.994;18.204;2022-09-09T14:51:09;1.50;;;1.10;;
57335;SDS011;43171;50.994;18.204;2022-09-09T14:53:36;1.60;;;0.90;;
57335;SDS011;43171;50.994;18.204;2022-09-09T14:56:03;1.60;;;0.90;;
57335;SDS011;43171;50.994;18.204;2022-09-09T14:58:30;1.30;;;0.90;;
57335;SDS011;43171;50.994;18.204;2022-09-09T15:01:01;1.00;;;0.70;;
57335;SDS011;43171;50.994;18.204;2022-09-09T15:03:28;2.40;;;0.80;;
57335;SDS011;43171;50.994;18.204;2022-09-09T15:05:53;1.60;;;0.90;;
57335;SDS011;43171;50.994;18.204;2022-09-09T15:08:19;3.00;;;0.80;;
57335;SDS011;43171;50.994;18.204;2022-09-09T15:10:44;1.90;;;0.80;;
57335;SDS011;43171;50.994;18.204;2022-09-09T15:13:14;1.50;;;0.70;;
57335;SDS011;43171;50.994;18.204;2022-09-09T15:15:42;3.00;;;1.00;;
57335;SDS011;43171;50.994;18.204;2022-09-09T15:18:09;2.80;;;1.30;;
57335;SDS011;43171;50.994;18.204;2022-09-09T15:20:34;2.10;;;1.10;;
57335;SDS011;43171;50.994;18.204;2022-09-09T15:23:02;2.90;;;1.10;;
57335;SDS011;43171;50.994;18.204;2022-09-09T15:25:28;1.80;;;1.30;;
57335;SDS011;43171;50.994;18.204;2022-09-09T15:27:54;4.50;;;1.20;;
57335;SDS011;43171;50.994;18.204;2022-09-09T15:30:21;3.20;;;1.20;;
57335;SDS011;43171;50.994;18.204;2022-09-09T15:32:47;1.70;;;1.00;;
57335;SDS011;43171;50.994;18.204;2022-09-09T15:35:12;1.90;;;1.10;;
57335;SDS011;43171;50.994;18.204;2022-09-09T15:37:38;3.40;;;1.20;;
57335;SDS011;43171;50.994;18.204;2022-09-09T15:40:03;1.50;;;1.00;;
57335;SDS011;43171;50.994;18.204;2022-09-09T15:42:30;2.00;;;1.10;;
57335;SDS011;43171;50.994;18.204;2022-09-09T15:44:55;2.50;;;1.30;;
57335;SDS011;43171;50.994;18.204;2022-09-09T15:47:21;1.40;;;1.00;;
57335;SDS011;43171;50.994;18.204;2022-09-09T15:49:49;2.60;;;1.20;;
57335;SDS011;43171;50.994;18.204;2022-09-09T15:52:15;1.60;;;1.00;;
57335;SDS011;43171;50.994;18.204;2022-09-09T15:54:41;2.30;;;1.30;;
57335;SDS011;43171;50.994;18.204;2022-09-09T15:57:09;2.90;;;1.40;;
57335;SDS011;43171;50.994;18.204;2022-09-09T15:59:38;2.80;;;1.40;;
57335;SDS011;43171;50.994;18.204;2022-09-09T16:02:05;2.80;;;1.80;;
57335;SDS011;43171;50.994;18.204;2022-09-09T16:04:32;2.80;;;2.00;;
57335;SDS011;43171;50.994;18.204;2022-09-09T16:07:03;3.10;;;1.90;;
57335;SDS011;43171;50.994;18.204;2022-09-09T16:09:29;3.30;;;2.20;;
57335;SDS011;43171;50.994;18.204;2022-09-09T16:11:56;3.00;;;2.10;;
57335;SDS011;43171;50.994;18.204;2022-09-09T16:14:23;5.40;;;2.20;;
57335;SDS011;43171;50.994;18.204;2022-09-09T16:16:51;3.10;;;2.10;;
57335;SDS011;43171;50.994;18.204;2022-09-09T16:19:17;4.40;;;2.20;;
57335;SDS011;43171;50.994;18.204;2022-09-09T16:21:44;3.10;;;2.50;;
57335;SDS011;43171;50.994;18.204;2022-09-09T16:24:12;4.00;;;2.50;;
57335;SDS011;43171;50.994;18.204;2022-09-09T16:26:40;4.60;;;2.70;;
57335;SDS011;43171;50.994;18.204;2022-09-09T16:29:12;4.50;;;2.80;;
57335;SDS011;43171;50.994;18.204;2022-09-09T16:31:39;4.80;;;2.80;;
57335;SDS011;43171;50.994;18.204;2022-09-09T16:34:05;4.30;;;2.80;;
57335;SDS011;43171;50.994;18.204;2022-09-09T16:36:32;4.10;;;2.70;;
57335;SDS011;43171;50.994;18.204;2022-09-09T16:39:00;4.60;;;2.70;;
57335;SDS011;43171;50.994;18.204;2022-09-09T16:41:28;4.10;;;2.70;;